Time;durP1;ratioP1;P1;durP2;ratioP2;P2;SDS_P1;SDS_P2;PMS_P1;PMS_P2;Temp;Humidity;BMP_temperature;BMP_pressure;BME280_temperature;BME280_humidity;BME280_pressure;Samples;Min_cycle;Max_cycle;Signal;HPM_P1;HPM_P2
2022/01/07 00:01:08;;;;;;;;;;;3.10;99.90;;;;;;5053107;28;19921;-71
2022/01/07 00:03:34;;;;;;;;;;;3.10;99.90;;;;;;5052913;28;19956;-71
2022/01/07 00:06:00;;;;;;;;;;;3.10;99.90;;;;;;5052946;28;19921;-71
2022/01/07 00:08:26;;;;;;;;;;;4.70;99.90;;;;;;5052984;28;19953;-71
2022/01/07 00:10:52;;;;;;;;;;;1.80;99.90;;;;;;5052812;28;19925;-70
2022/01/07 00:13:17;;;;;;;;;;;4.00;99.90;;;;;;5052978;28;19921;-71
2022/01/07 00:15:44;;;;;;;;;;;3.10;99.90;;;;;;5053154;28;19927;-71
2022/01/07 00:18:10;;;;;;;;;;;3.10;99.90;;;;;;5052962;28;20364;-71
2022/01/07 00:20:37;;;;;;;;;;;3.10;99.90;;;;;;5088425;28;20059;-71
2022/01/07 00:23:02;;;;;;;;;;;5.10;99.90;;;;;;5056386;28;19943;-71
2022/01/07 00:25:28;;;;;;;;;;;3.10;99.90;;;;;;5055037;28;19921;-71
2022/01/07 00:27:54;;;;;;;;;;;3.10;99.90;;;;;;5056503;28;19932;-71
2022/01/07 00:30:20;;;;;;;;;;;3.10;99.90;;;;;;5056374;28;19921;-71
2022/01/07 00:32:46;;;;;;;;;;;3.10;99.90;;;;;;5055137;28;19921;-71
2022/01/07 00:35:12;;;;;;;;;;;3.10;99.90;;;;;;5056206;28;20402;-71
2022/01/07 00:37:38;;;;;;;;;;;4.70;99.90;;;;;;5056124;28;19920;-72
2022/01/07 00:40:05;;;;;;;;;;;3.40;99.90;;;;;;5056036;28;19920;-71
2022/01/07 00:42:30;;;;;;;;;;;3.20;99.90;;;;;;5056212;28;19921;-70
2022/01/07 00:44:56;;;;;;;;;;;3.00;99.90;;;;;;5056052;28;19967;-71
2022/01/07 00:47:22;;;;;;;;;;;4.50;99.90;;;;;;5088749;28;19956;-71
2022/01/07 00:49:47;;;;;;;;;;;4.80;99.90;;;;;;5056173;28;20445;-71
2022/01/07 00:52:13;;;;;;;;;;;2.40;99.90;;;;;;5055955;28;20412;-71
2022/01/07 00:54:38;;;;;;;;;;;3.20;99.90;;;;;;5055663;28;19921;-71
2022/01/07 00:57:04;;;;;;;;;;;5.20;99.90;;;;;;5055721;28;19929;-71
2022/01/07 00:59:29;;;;;;;;;;;3.20;99.90;;;;;;5055808;28;20071;-71
2022/01/07 01:01:55;;;;;;;;;;;5.00;99.90;;;;;;5055840;28;19920;-71
2022/01/07 01:04:21;;;;;;;;;;;3.20;99.90;;;;;;5055498;28;19927;-70
2022/01/07 01:06:46;;;;;;;;;;;3.20;99.90;;;;;;5055578;28;19921;-71
2022/01/07 01:09:12;;;;;;;;;;;4.30;99.90;;;;;;5055547;28;19921;-71
2022/01/07 01:11:38;;;;;;;;;;;4.90;99.90;;;;;;5055425;28;20273;-71
2022/01/07 01:14:05;;;;;;;;;;;3.30;99.90;;;;;;5055380;28;19925;-71
2022/01/07 01:16:31;;;;;;;;;;;3.10;99.90;;;;;;5055557;28;19921;-71
2022/01/07 01:18:57;;;;;;;;;;;3.50;99.90;;;;;;5055398;28;19971;-71
2022/01/07 01:21:22;;;;;;;;;;;3.10;99.90;;;;;;5055332;28;19967;-72
2022/01/07 01:23:50;;;;;;;;;;;4.10;99.90;;;;;;5055439;28;19927;-71
2022/01/07 01:26:15;;;;;;;;;;;3.00;99.90;;;;;;5054166;28;19994;-71
2022/01/07 01:28:41;;;;;;;;;;;3.00;99.90;;;;;;5055376;28;19925;-71
2022/01/07 01:31:07;;;;;;;;;;;4.40;99.90;;;;;;5054884;28;20291;-71
2022/01/07 01:33:32;;;;;;;;;;;3.50;99.90;;;;;;5055163;28;19921;-71
2022/01/07 01:35:58;;;;;;;;;;;4.00;99.90;;;;;;5087784;28;19924;-73
2022/01/07 01:38:27;;;;;;;;;;;4.30;99.90;;;;;;5055073;28;20415;-72
2022/01/07 01:40:53;;;;;;;;;;;3.40;99.90;;;;;;5054011;28;19920;-71
2022/01/07 01:43:18;;;;;;;;;;;2.70;99.90;;;;;;5055014;28;20372;-71
2022/01/07 01:45:44;;;;;;;;;;;2.60;99.90;;;;;;5053684;28;19925;-72
2022/01/07 01:48:09;;;;;;;;;;;4.10;99.90;;;;;;5054967;28;19920;-72
2022/01/07 01:50:35;;;;;;;;;;;2.60;99.90;;;;;;5054826;28;20019;-71
2022/01/07 01:53:00;;;;;;;;;;;2.60;99.90;;;;;;5087363;28;20299;-71
2022/01/07 01:55:26;;;;;;;;;;;2.50;99.90;;;;;;5054450;28;19921;-73
2022/01/07 01:57:53;;;;;;;;;;;3.10;99.90;;;;;;5054533;28;19921;-71
2022/01/07 02:00:19;;;;;;;;;;;3.20;99.90;;;;;;5053669;28;20330;-71
2022/01/07 02:02:45;;;;;;;;;;;2.40;99.90;;;;;;5054653;28;20030;-73
2022/01/07 02:05:10;;;;;;;;;;;2.70;99.90;;;;;;5054487;28;20411;-71
2022/01/07 02:07:38;;;;;;;;;;;2.40;99.90;;;;;;5053071;28;20375;-72
2022/01/07 02:10:13;;;;;;;;;;;4.20;99.90;;;;;;5054420;28;19928;-72
2022/01/07 02:12:40;;;;;;;;;;;2.40;99.90;;;;;;5054353;28;19921;-71
2022/01/07 02:15:06;;;;;;;;;;;2.30;99.90;;;;;;5054410;28;19920;-71
2022/01/07 02:17:32;;;;;;;;;;;2.40;99.90;;;;;;5087123;28;19921;-71
2022/01/07 02:19:57;;;;;;;;;;;3.20;99.90;;;;;;5053109;28;19921;-73
2022/01/07 02:22:23;;;;;;;;;;;1.10;99.90;;;;;;5069669;28;19924;-72
2022/01/07 02:24:50;;;;;;;;;;;3.90;99.90;;;;;;5054190;28;20015;-72
2022/01/07 02:27:16;;;;;;;;;;;3.40;99.90;;;;;;5054002;28;20023;-71
2022/01/07 02:29:45;;;;;;;;;;;3.00;99.90;;;;;;5054135;28;19967;-72
2022/01/07 02:32:11;;;;;;;;;;;2.30;99.90;;;;;;5069466;28;19963;-72
2022/01/07 02:34:36;;;;;;;;;;;2.10;99.90;;;;;;5053982;28;20002;-71
2022/01/07 02:37:02;;;;;;;;;;;4.20;99.90;;;;;;5053994;28;19974;-73
2022/01/07 02:39:28;;;;;;;;;;;2.30;99.90;;;;;;5053932;28;19928;-72
2022/01/07 02:41:54;;;;;;;;;;;3.40;99.90;;;;;;5052188;28;19963;-72
2022/01/07 02:44:19;;;;;;;;;;;2.30;99.90;;;;;;5054210;28;20288;-72
2022/01/07 02:46:48;;;;;;;;;;;2.30;99.90;;;;;;5086700;28;19976;-72
2022/01/07 02:49:15;;;;;;;;;;;2.30;99.90;;;;;;5053832;28;19978;-72
2022/01/07 02:51:41;;;;;;;;;;;2.30;99.90;;;;;;5053795;28;20367;-72
2022/01/07 02:54:07;;;;;;;;;;;2.20;99.90;;;;;;5053612;28;19976;-72
2022/01/07 02:56:33;;;;;;;;;;;2.20;99.90;;;;;;5086393;28;20342;-73
2022/01/07 02:58:58;;;;;;;;;;;2.20;99.90;;;;;;5053806;28;19928;-72
2022/01/07 03:01:24;;;;;;;;;;;2.00;99.90;;;;;;5053484;28;19925;-72
2022/01/07 03:03:49;;;;;;;;;;;2.10;99.90;;;;;;5053517;28;19920;-72
2022/01/07 03:06:15;;;;;;;;;;;2.20;99.90;;;;;;5069151;28;19987;-73
2022/01/07 03:08:44;;;;;;;;;;;2.10;99.90;;;;;;5053516;28;19920;-72
2022/01/07 03:11:09;;;;;;;;;;;2.20;99.90;;;;;;5053486;28;19964;-72
2022/01/07 03:13:35;;;;;;;;;;;2.70;99.90;;;;;;5053278;28;19975;-72
2022/01/07 03:16:00;;;;;;;;;;;2.10;99.90;;;;;;5086436;28;19928;-74
2022/01/07 03:18:26;;;;;;;;;;;2.10;99.90;;;;;;5086092;28;19971;-73
2022/01/07 03:20:52;;;;;;;;;;;0.30;99.90;;;;;;5053495;28;19928;-72
2022/01/07 03:23:17;;;;;;;;;;;2.10;99.90;;;;;;5068958;28;19920;-73
2022/01/07 03:25:44;;;;;;;;;;;2.40;99.90;;;;;;5053449;28;19921;-72
2022/01/07 03:28:10;;;;;;;;;;;3.80;99.90;;;;;;5053295;28;19929;-71
2022/01/07 03:30:36;;;;;;;;;;;2.40;99.90;;;;;;5053085;28;20414;-72
2022/01/07 03:33:02;;;;;;;;;;;2.10;99.90;;;;;;5053477;28;19921;-71
2022/01/07 03:35:28;;;;;;;;;;;2.10;99.90;;;;;;5053356;28;19921;-71
2022/01/07 03:37:54;;;;;;;;;;;3.70;99.90;;;;;;5053391;28;20445;-73
2022/01/07 03:40:20;;;;;;;;;;;3.10;99.90;;;;;;5053290;28;20327;-72
2022/01/07 03:42:47;;;;;;;;;;;1.70;99.90;;;;;;5069068;28;19926;-74
2022/01/07 03:45:13;;;;;;;;;;;2.10;99.90;;;;;;5053112;28;19975;-72
2022/01/07 03:47:39;;;;;;;;;;;2.00;99.90;;;;;;5053322;28;20007;-73
2022/01/07 03:50:09;;;;;;;;;;;2.10;99.90;;;;;;5085897;28;20467;-72
2022/01/07 03:52:35;;;;;;;;;;;2.70;99.90;;;;;;5053132;28;19921;-71
2022/01/07 03:55:02;;;;;;;;;;;2.20;99.90;;;;;;5056461;28;19990;-74
2022/01/07 03:57:28;;;;;;;;;;;2.00;99.90;;;;;;5056841;28;19921;-72
2022/01/07 03:59:53;;;;;;;;;;;1.00;99.90;;;;;;5089662;28;20253;-72
2022/01/07 04:02:19;;;;;;;;;;;2.50;99.90;;;;;;5089682;28;20385;-72
2022/01/07 04:04:45;;;;;;;;;;;3.20;99.90;;;;;;5072313;28;20291;-74
2022/01/07 04:07:11;;;;;;;;;;;2.00;99.90;;;;;;5056757;28;19921;-74
2022/01/07 04:09:36;;;;;;;;;;;2.10;99.90;;;;;;5056743;28;20299;-73
2022/01/07 04:12:02;;;;;;;;;;;2.00;99.90;;;;;;5055469;28;20288;-72
2022/01/07 04:14:28;;;;;;;;;;;2.00;99.90;;;;;;5056451;28;19924;-71
2022/01/07 04:16:53;;;;;;;;;;;4.10;99.90;;;;;;5056703;28;19921;-72
2022/01/07 04:19:19;;;;;;;;;;;3.50;99.90;;;;;;5089504;28;19925;-72
2022/01/07 04:21:47;;;;;;;;;;;2.10;99.90;;;;;;5056553;28;20012;-73
2022/01/07 04:24:13;;;;;;;;;;;2.10;99.90;;;;;;5089307;28;19925;-73
2022/01/07 04:26:39;;;;;;;;;;;3.50;99.90;;;;;;5056397;28;20386;-73
2022/01/07 04:29:04;;;;;;;;;;;2.00;99.90;;;;;;5056299;28;19931;-71
2022/01/07 04:31:30;;;;;;;;;;;2.60;99.90;;;;;;5056424;28;20431;-72
2022/01/07 04:33:55;;;;;;;;;;;2.00;99.90;;;;;;5088816;28;20283;-72
2022/01/07 04:36:21;;;;;;;;;;;2.10;99.90;;;;;;5056156;28;20284;-72
2022/01/07 04:38:46;;;;;;;;;;;2.70;99.90;;;;;;5055360;28;19928;-72
2022/01/07 04:41:12;;;;;;;;;;;2.60;99.90;;;;;;5056126;28;20398;-73
2022/01/07 04:43:38;;;;;;;;;;;2.80;99.90;;;;;;5054912;28;19925;-73
2022/01/07 04:46:04;;;;;;;;;;;2.10;99.90;;;;;;5056200;28;19927;-71
2022/01/07 04:48:30;;;;;;;;;;;2.10;99.90;;;;;;5056139;28;19921;-71
2022/01/07 04:50:55;;;;;;;;;;;2.60;99.90;;;;;;5055808;28;19967;-72
2022/01/07 04:53:21;;;;;;;;;;;2.20;99.90;;;;;;5055900;28;19921;-73
2022/01/07 04:55:47;;;;;;;;;;;2.60;99.90;;;;;;5088506;28;20390;-74
2022/01/07 04:58:14;;;;;;;;;;;2.10;99.90;;;;;;5055779;28;20015;-73
2022/01/07 05:00:40;;;;;;;;;;;3.60;99.90;;;;;;5055622;28;19920;-72
2022/01/07 05:03:06;;;;;;;;;;;3.60;99.90;;;;;;5055801;28;19921;-71
2022/01/07 05:05:31;;;;;;;;;;;3.20;99.90;;;;;;5054785;28;19973;-72
2022/01/07 05:07:57;;;;;;;;;;;2.20;99.90;;;;;;5055579;28;19928;-72
2022/01/07 05:10:23;;;;;;;;;;;1.80;99.90;;;;;;5055655;28;19920;-71
2022/01/07 05:12:49;;;;;;;;;;;2.00;99.90;;;;;;5055555;28;19925;-72
2022/01/07 05:15:15;;;;;;;;;;;1.90;99.90;;;;;;5055304;28;20272;-72
2022/01/07 05:17:42;;;;;;;;;;;3.20;99.90;;;;;;5055592;28;19927;-72
2022/01/07 05:20:08;;;;;;;;;;;2.20;99.90;;;;;;5055498;28;19927;-71
2022/01/07 05:22:34;;;;;;;;;;;2.20;99.90;;;;;;5055325;28;19921;-74
2022/01/07 05:25:00;;;;;;;;;;;2.20;99.90;;;;;;5055359;28;19979;-74
2022/01/07 05:27:26;;;;;;;;;;;2.30;99.90;;;;;;5087823;28;19928;-72
2022/01/07 05:29:52;;;;;;;;;;;3.80;99.90;;;;;;5055089;28;19920;-72
2022/01/07 05:32:17;;;;;;;;;;;2.30;99.90;;;;;;5055471;28;19921;-72
2022/01/07 05:34:43;;;;;;;;;;;2.30;99.90;;;;;;5055167;28;20391;-72
2022/01/07 05:37:10;;;;;;;;;;;3.10;99.90;;;;;;5055128;28;19943;-72
2022/01/07 05:39:36;;;;;;;;;;;3.10;99.90;;;;;;5055426;28;19921;-73
2022/01/07 05:42:02;;;;;;;;;;;2.30;99.90;;;;;;5054982;28;19921;-72
2022/01/07 05:44:27;;;;;;;;;;;2.10;99.90;;;;;;5054865;28;19973;-73
2022/01/07 05:46:53;;;;;;;;;;;2.90;99.90;;;;;;5087188;28;19924;-72
2022/01/07 05:49:18;;;;;;;;;;;3.70;99.90;;;;;;5054827;28;19927;-72
2022/01/07 05:51:44;;;;;;;;;;;4.00;99.90;;;;;;5055075;28;20011;-72
2022/01/07 05:54:09;;;;;;;;;;;2.30;99.90;;;;;;5054690;28;20374;-72
2022/01/07 05:56:36;;;;;;;;;;;2.40;99.90;;;;;;5054783;28;20295;-71
2022/01/07 05:59:02;;;;;;;;;;;3.20;99.90;;;;;;5087185;28;19970;-74
2022/01/07 06:01:28;;;;;;;;;;;3.50;99.90;;;;;;5054749;28;20019;-71
2022/01/07 06:03:53;;;;;;;;;;;2.40;99.90;;;;;;5054282;28;20007;-71
2022/01/07 06:06:19;;;;;;;;;;;2.40;99.90;;;;;;5054611;28;19974;-72
2022/01/07 06:08:45;;;;;;;;;;;2.40;99.90;;;;;;5087231;28;19975;-72
2022/01/07 06:11:10;;;;;;;;;;;2.00;99.90;;;;;;5087094;28;19928;-71
2022/01/07 06:13:36;;;;;;;;;;;2.40;99.90;;;;;;5053265;28;19924;-72
2022/01/07 06:16:02;;;;;;;;;;;2.40;99.90;;;;;;5054154;28;19927;-71
2022/01/07 06:18:28;;;;;;;;;;;3.70;99.90;;;;;;5053419;28;19924;-72
2022/01/07 06:20:54;;;;;;;;;;;2.00;99.90;;;;;;5053469;28;20398;-71
2022/01/07 06:23:20;;;;;;;;;;;2.50;99.90;;;;;;5054257;28;19928;-72
2022/01/07 06:25:48;;;;;;;;;;;4.00;99.90;;;;;;5054252;28;19928;-72
2022/01/07 06:28:14;;;;;;;;;;;3.20;99.90;;;;;;5054172;28;19920;-72
2022/01/07 06:30:40;;;;;;;;;;;4.30;99.90;;;;;;5086783;28;19927;-71
2022/01/07 06:33:06;;;;;;;;;;;2.50;99.90;;;;;;5053910;28;19921;-71
2022/01/07 06:35:31;;;;;;;;;;;2.50;99.90;;;;;;5054119;28;19971;-71
2022/01/07 06:37:57;;;;;;;;;;;3.70;99.90;;;;;;5054067;28;19974;-72
2022/01/07 06:40:22;;;;;;;;;;;1.70;99.90;;;;;;5086630;28;19928;-72
2022/01/07 06:42:48;;;;;;;;;;;2.60;99.90;;;;;;5052625;28;19920;-73
2022/01/07 06:45:13;;;;;;;;;;;3.00;99.90;;;;;;5053837;28;19920;-73
2022/01/07 06:47:39;;;;;;;;;;;2.50;99.90;;;;;;5053704;28;20291;-72
2022/01/07 06:50:05;;;;;;;;;;;4.00;99.90;;;;;;5086622;28;19924;-73
2022/01/07 06:52:31;;;;;;;;;;;2.30;99.90;;;;;;5052481;28;19921;-72
2022/01/07 06:54:56;;;;;;;;;;;2.60;99.90;;;;;;5053739;28;19924;-72
2022/01/07 06:57:22;;;;;;;;;;;2.60;99.90;;;;;;5053805;28;19974;-72
2022/01/07 06:59:48;;;;;;;;;;;3.10;99.90;;;;;;5053650;28;19965;-72
2022/01/07 07:02:13;;;;;;;;;;;4.30;99.90;;;;;;5053466;28;20391;-73
2022/01/07 07:04:39;;;;;;;;;;;3.60;99.90;;;;;;5053217;28;20253;-72
2022/01/07 07:07:05;;;;;;;;;;;2.60;99.90;;;;;;5053661;28;19977;-71
2022/01/07 07:09:31;;;;;;;;;;;3.70;99.90;;;;;;5053814;28;20012;-73
2022/01/07 07:11:56;;;;;;;;;;;2.70;99.90;;;;;;5053650;28;19964;-72
2022/01/07 07:14:22;;;;;;;;;;;2.70;99.90;;;;;;5053458;28;19920;-72
2022/01/07 07:16:47;;;;;;;;;;;3.70;99.90;;;;;;5053488;28;19921;-74
2022/01/07 07:19:13;;;;;;;;;;;4.00;99.90;;;;;;5053358;28;19924;-74
2022/01/07 07:21:39;;;;;;;;;;;2.70;99.90;;;;;;5086503;28;19927;-73
2022/01/07 07:24:05;;;;;;;;;;;2.70;99.90;;;;;;5053542;28;19924;-72
2022/01/07 07:26:31;;;;;;;;;;;2.70;99.90;;;;;;5069031;28;19920;-72
2022/01/07 07:28:57;;;;;;;;;;;3.20;99.90;;;;;;5055172;28;19921;-73
2022/01/07 07:31:22;;;;;;;;;;;4.40;99.90;;;;;;5057717;28;19982;-71
2022/01/07 07:36:27;;;;;;;;;;;2.70;99.90;;;;;;5057582;28;19920;-72
2022/01/07 07:38:53;;;;;;;;;;;2.70;99.90;;;;;;5057463;28;19950;-73
2022/01/07 07:41:19;;;;;;;;;;;2.70;99.90;;;;;;5057340;28;20055;-73
2022/01/07 07:43:47;;;;;;;;;;;4.40;99.90;;;;;;5057242;28;19986;-74
2022/01/07 07:46:13;;;;;;;;;;;2.70;99.90;;;;;;5057036;28;19928;-72
2022/01/07 07:48:39;;;;;;;;;;;4.50;99.90;;;;;;5057071;28;19988;-72
2022/01/07 07:51:04;;;;;;;;;;;3.90;99.90;;;;;;5057229;28;19924;-72
2022/01/07 07:53:30;;;;;;;;;;;4.60;99.90;;;;;;5057185;28;19927;-72
2022/01/07 07:55:55;;;;;;;;;;;2.80;99.90;;;;;;5057026;28;19967;-73
2022/01/07 07:58:22;;;;;;;;;;;2.80;99.90;;;;;;5071294;28;19921;-73
2022/01/07 08:00:47;;;;;;;;;;;4.00;99.90;;;;;;5089602;28;19975;-72
2022/01/07 08:03:13;;;;;;;;;;;2.80;99.90;;;;;;5056497;28;20303;-72
2022/01/07 08:05:39;;;;;;;;;;;4.30;99.90;;;;;;5056863;28;19920;-72
2022/01/07 08:08:05;;;;;;;;;;;2.90;99.90;;;;;;5056728;28;19924;-72
2022/01/07 08:10:31;;;;;;;;;;;2.90;99.90;;;;;;5055404;28;19978;-73
2022/01/07 08:18:16;;;;;;;;;;;2.90;99.90;;;;;;5056697;28;19924;-73
2022/01/07 08:20:41;;;;;;;;;;;2.90;99.90;;;;;;5056625;28;19920;-72
2022/01/07 08:23:07;;;;;;;;;;;3.00;99.90;;;;;;5056517;28;20015;-71
2022/01/07 08:25:33;;;;;;;;;;;3.10;99.90;;;;;;5089063;28;19920;-72
2022/01/07 08:28:03;;;;;;;;;;;4.60;99.90;;;;;;5088658;28;20398;-72
2022/01/07 08:30:36;;;;;;;;;;;3.00;99.90;;;;;;5056189;28;19921;-72
2022/01/07 08:35:46;;;;;;;;;;;3.00;99.90;;;;;;5056336;28;19928;-72
2022/01/07 08:38:12;;;;;;;;;;;3.70;99.90;;;;;;5056246;28;19920;-72
2022/01/07 08:40:37;;;;;;;;;;;4.50;99.90;;;;;;5087659;28;20345;-72
2022/01/07 08:43:03;;;;;;;;;;;2.40;99.90;;;;;;5055977;28;19976;-71
2022/01/07 08:45:29;;;;;;;;;;;4.80;99.90;;;;;;5071391;28;19921;-73
2022/01/07 08:47:54;;;;;;;;;;;5.10;99.90;;;;;;5056146;28;19924;-72
2022/01/07 08:50:20;;;;;;;;;;;3.10;99.90;;;;;;5056096;28;19920;-72
2022/01/07 08:52:45;;;;;;;;;;;3.10;99.90;;;;;;5088728;28;19924;-72
2022/01/07 08:55:11;;;;;;;;;;;4.80;99.90;;;;;;5088224;28;19964;-73
2022/01/07 08:57:37;;;;;;;;;;;3.20;99.90;;;;;;5055741;28;19921;-72
2022/01/07 09:00:04;;;;;;;;;;;4.70;99.90;;;;;;5055432;28;19928;-72
2022/01/07 09:02:29;;;;;;;;;;;3.20;99.90;;;;;;5054609;28;19944;-75
2022/01/07 09:04:56;;;;;;;;;;;3.30;99.90;;;;;;5055728;28;19921;-75
2022/01/07 09:07:21;;;;;;;;;;;3.90;99.90;;;;;;5055679;28;19921;-74
2022/01/07 09:09:47;;;;;;;;;;;3.30;99.90;;;;;;5088159;28;19928;-72
2022/01/07 09:12:13;;;;;;;;;;;3.30;99.90;;;;;;5088091;28;19947;-74
2022/01/07 09:14:38;;;;;;;;;;;5.10;99.90;;;;;;5055236;28;19921;-73
2022/01/07 09:17:04;;;;;;;;;;;3.80;99.90;;;;;;5088442;28;19920;-73
2022/01/07 09:19:29;;;;;;;;;;;5.20;99.90;;;;;;5055377;28;19920;-75
2022/01/07 09:21:56;;;;;;;;;;;4.30;99.90;;;;;;5055421;28;19921;-74
2022/01/07 09:24:22;;;;;;;;;;;3.40;99.90;;;;;;5055399;28;19928;-75
2022/01/07 09:26:48;;;;;;;;;;;4.40;99.90;;;;;;5055348;28;19921;-73
2022/01/07 09:29:32;;;;;;;;;;;4.30;99.90;;;;;;5055236;28;19970;-73
2022/01/07 09:31:57;;;;;;;;;;;3.50;99.90;;;;;;5071304;28;19921;-72
2022/01/07 09:34:23;;;;;;;;;;;3.50;99.90;;;;;;5087707;28;20364;-74
2022/01/07 09:36:48;;;;;;;;;;;4.50;99.90;;;;;;5055054;28;19959;-73
2022/01/07 09:39:14;;;;;;;;;;;4.80;99.90;;;;;;5055266;28;19924;-73
2022/01/07 09:41:40;;;;;;;;;;;3.20;99.90;;;;;;5054914;28;19920;-74
2022/01/07 09:44:14;;;;;;;;;;;3.60;99.90;;;;;;5054931;28;19920;-73
2022/01/07 09:46:41;;;;;;;;;;;3.60;99.90;;;;;;5054937;28;20280;-73
2022/01/07 09:49:07;;;;;;;;;;;3.70;99.90;;;;;;5054888;28;20008;-76
2022/01/07 09:51:32;;;;;;;;;;;3.80;99.90;;;;;;5053564;28;19971;-75
2022/01/07 09:54:02;;;;;;;;;;;3.70;99.90;;;;;;5054719;28;20333;-72
2022/01/07 09:56:28;;;;;;;;;;;3.70;99.90;;;;;;5054684;28;19921;-72
2022/01/07 09:58:54;;;;;;;;;;;4.80;99.90;;;;;;5053312;28;19987;-71
2022/01/07 10:01:22;;;;;;;;;;;5.30;99.90;;;;;;5054709;28;20379;-73
2022/01/07 10:03:48;;;;;;;;;;;3.80;99.90;;;;;;5054560;28;20276;-72
2022/01/07 10:06:24;;;;;;;;;;;5.30;99.90;;;;;;5086573;28;19951;-74
2022/01/07 10:08:59;;;;;;;;;;;3.90;99.90;;;;;;5054415;28;20423;-73
2022/01/07 10:11:25;;;;;;;;;;;4.00;99.90;;;;;;5054174;28;20438;-75
2022/01/07 10:14:11;;;;;;;;;;;4.00;99.90;;;;;;5036787;28;19921;-73
2022/01/07 10:16:46;;;;;;;;;;;4.70;99.90;;;;;;5054033;28;19928;-74
2022/01/07 10:19:27;;;;;;;;;;;4.80;99.90;;;;;;5054297;28;19920;-72
2022/01/07 10:21:58;;;;;;;;;;;4.10;99.90;;;;;;5054129;28;20339;-74
2022/01/07 10:24:23;;;;;;;;;;;4.10;99.90;;;;;;5054269;28;20459;-72
2022/01/07 10:27:08;;;;;;;;;;;4.20;99.90;;;;;;5054269;28;19964;-72
2022/01/07 10:29:37;;;;;;;;;;;3.70;99.90;;;;;;5054026;28;19944;-72
2022/01/07 10:32:29;;;;;;;;;;;4.20;99.90;;;;;;5053912;28;19920;-72
2022/01/07 10:35:07;;;;;;;;;;;4.20;99.90;;;;;;5052733;28;19924;-72
2022/01/07 10:37:34;;;;;;;;;;;4.30;99.90;;;;;;5054031;28;19921;-73
2022/01/07 10:39:59;;;;;;;;;;;4.20;99.90;;;;;;5053895;28;19990;-74
2022/01/07 10:42:25;;;;;;;;;;;4.20;99.90;;;;;;5053926;28;20376;-73
2022/01/07 10:45:01;;;;;;;;;;;5.10;99.90;;;;;;5069207;28;20379;-75
2022/01/07 10:47:30;;;;;;;;;;;4.20;99.90;;;;;;5052758;28;20295;-74
2022/01/07 10:50:14;;;;;;;;;;;4.90;99.90;;;;;;5053904;28;19921;-73
2022/01/07 10:52:40;;;;;;;;;;;4.40;99.90;;;;;;5053765;28;20283;-73
2022/01/07 10:55:07;;;;;;;;;;;5.70;99.90;;;;;;5069227;28;19921;-73
2022/01/07 10:57:41;;;;;;;;;;;4.30;99.90;;;;;;5053624;28;19960;-73
2022/01/07 11:00:17;;;;;;;;;;;4.30;99.90;;;;;;5053495;28;19991;-73
2022/01/07 11:02:43;;;;;;;;;;;4.30;99.90;;;;;;5086120;28;19927;-77
2022/01/07 11:05:09;;;;;;;;;;;6.00;99.90;;;;;;5052222;28;19920;-73
2022/01/07 11:07:35;;;;;;;;;;;5.50;99.90;;;;;;5053587;28;20354;-74
2022/01/07 11:10:05;;;;;;;;;;;4.40;99.90;;;;;;5053490;28;20057;-73
2022/01/07 11:12:31;;;;;;;;;;;4.40;99.90;;;;;;5086302;28;19920;-73
2022/01/07 11:14:58;;;;;;;;;;;4.50;99.90;;;;;;5053504;28;20264;-72
2022/01/07 11:17:24;;;;;;;;;;;4.50;99.90;;;;;;5053432;28;19921;-72
2022/01/07 11:19:59;;;;;;;;;;;4.50;99.90;;;;;;5053566;28;19921;-72
2022/01/07 11:22:25;;;;;;;;;;;4.50;99.90;;;;;;5086044;28;20289;-72
2022/01/07 11:25:03;;;;;;;;;;;4.50;99.90;;;;;;5053185;28;19920;-75
2022/01/07 11:27:30;;;;;;;;;;;4.50;99.90;;;;;;5052787;28;20395;-74
2022/01/07 11:29:59;;;;;;;;;;;4.60;99.90;;;;;;5053031;28;19935;-75
2022/01/07 11:32:25;;;;;;;;;;;4.60;99.90;;;;;;5085831;28;19947;-73
2022/01/07 11:34:52;;;;;;;;;;;5.00;99.90;;;;;;5085587;28;19921;-76
2022/01/07 11:37:38;;;;;;;;;;;4.70;99.90;;;;;;5053038;28;20367;-72
2022/01/07 11:40:04;;;;;;;;;;;4.70;99.90;;;;;;5053264;28;19921;-72
2022/01/07 11:42:40;;;;;;;;;;;4.70;99.90;;;;;;5053138;28;19920;-74
2022/01/07 11:45:27;;;;;;;;;;;4.70;99.90;;;;;;5052970;28;19928;-73
2022/01/07 11:47:53;;;;;;;;;;;4.80;99.90;;;;;;5052902;28;19928;-73
2022/01/07 11:50:19;;;;;;;;;;;6.00;99.90;;;;;;5053154;28;19921;-73
2022/01/07 11:52:58;;;;;;;;;;;4.80;99.90;;;;;;5052856;28;20019;-72
2022/01/07 11:55:26;;;;;;;;;;;4.80;99.90;;;;;;5052842;28;19920;-74
2022/01/07 11:57:55;;;;;;;;;;;4.80;99.90;;;;;;5053031;28;19921;-74
2022/01/07 12:00:39;;;;;;;;;;;4.80;99.90;;;;;;5052664;28;19974;-71
2022/01/07 12:03:05;;;;;;;;;;;4.80;99.90;;;;;;5052799;28;20383;-72
2022/01/07 12:05:31;;;;;;;;;;;4.80;99.90;;;;;;5052736;28;20375;-72
2022/01/07 12:07:57;;;;;;;;;;;4.80;99.90;;;;;;5052835;28;20376;-72
2022/01/07 12:10:23;;;;;;;;;;;4.80;99.90;;;;;;5052830;28;19927;-72
2022/01/07 12:12:50;;;;;;;;;;;4.90;99.90;;;;;;5085499;28;19920;-72
2022/01/07 12:15:16;;;;;;;;;;;5.40;99.90;;;;;;5053396;28;20372;-73
2022/01/07 12:17:41;;;;;;;;;;;4.80;99.90;;;;;;5055605;28;20023;-73
2022/01/07 12:20:26;;;;;;;;;;;4.80;99.90;;;;;;5056608;28;19967;-73
2022/01/07 12:22:53;;;;;;;;;;;4.40;99.90;;;;;;5056522;28;19951;-74
2022/01/07 12:25:18;;;;;;;;;;;5.40;99.90;;;;;;5056486;28;19982;-73
2022/01/07 12:27:44;;;;;;;;;;;4.90;99.90;;;;;;5071705;28;19921;-73
2022/01/07 12:30:10;;;;;;;;;;;4.80;99.90;;;;;;5055997;28;19920;-72
2022/01/07 12:32:37;;;;;;;;;;;5.00;99.90;;;;;;5056158;28;19943;-73
2022/01/07 12:35:04;;;;;;;;;;;4.80;99.90;;;;;;5088773;28;20011;-74
2022/01/07 12:37:30;;;;;;;;;;;4.80;99.90;;;;;;5056268;28;19928;-73
2022/01/07 12:39:58;;;;;;;;;;;4.90;99.90;;;;;;5055927;28;19921;-74
2022/01/07 12:42:27;;;;;;;;;;;4.80;99.90;;;;;;5056013;28;19973;-73
2022/01/07 12:44:57;;;;;;;;;;;4.80;99.90;;;;;;5056252;28;19925;-73
2022/01/07 12:47:30;;;;;;;;;;;4.80;99.90;;;;;;5056200;28;19924;-73
2022/01/07 12:49:57;;;;;;;;;;;4.70;99.90;;;;;;5088200;28;19925;-75
2022/01/07 12:52:22;;;;;;;;;;;4.70;99.90;;;;;;5071491;28;19921;-72
2022/01/07 12:55:02;;;;;;;;;;;5.20;99.90;;;;;;5088230;28;19928;-72
2022/01/07 12:57:33;;;;;;;;;;;5.70;99.90;;;;;;5056075;28;19990;-73
2022/01/07 13:00:07;;;;;;;;;;;4.80;99.90;;;;;;5071102;28;19920;-73
2022/01/07 13:02:33;;;;;;;;;;;4.80;99.90;;;;;;5071659;28;20010;-74
2022/01/07 13:05:16;;;;;;;;;;;4.80;99.90;;;;;;5055661;28;19964;-73
2022/01/07 13:07:42;;;;;;;;;;;4.80;99.90;;;;;;5055531;28;20011;-74
2022/01/07 13:10:09;;;;;;;;;;;4.80;99.90;;;;;;5055638;28;19924;-73
2022/01/07 13:12:35;;;;;;;;;;;4.90;99.90;;;;;;5055700;28;19920;-73
2022/01/07 13:15:00;;;;;;;;;;;6.20;99.90;;;;;;5053910;28;19920;-73
2022/01/07 13:17:28;;;;;;;;;;;4.90;99.90;;;;;;5055500;28;19921;-73
2022/01/07 13:19:54;;;;;;;;;;;5.10;99.90;;;;;;5054229;28;19920;-73
2022/01/07 13:22:23;;;;;;;;;;;4.80;99.90;;;;;;5087640;28;19970;-74
2022/01/07 13:24:50;;;;;;;;;;;4.90;99.90;;;;;;5055490;28;19920;-74
2022/01/07 13:27:17;;;;;;;;;;;4.90;99.90;;;;;;5054849;28;19964;-72
2022/01/07 13:29:47;;;;;;;;;;;4.80;99.90;;;;;;5055339;28;19974;-73
2022/01/07 13:32:19;;;;;;;;;;;4.80;99.90;;;;;;5054360;28;19925;-72
2022/01/07 13:34:45;;;;;;;;;;;4.80;99.90;;;;;;5055125;28;19920;-77
2022/01/07 13:37:18;;;;;;;;;;;4.80;99.90;;;;;;5055010;28;19996;-72
2022/01/07 13:39:44;;;;;;;;;;;4.80;99.90;;;;;;5055204;28;20012;-73
2022/01/07 13:42:11;;;;;;;;;;;4.80;99.90;;;;;;5055007;28;19964;-72
2022/01/07 13:44:51;;;;;;;;;;;4.80;99.90;;;;;;5055088;28;19943;-72
2022/01/07 13:47:22;;;;;;;;;;;4.80;99.90;;;;;;5054832;28;19928;-72
2022/01/07 13:49:48;;;;;;;;;;;4.80;99.90;;;;;;5054742;28;20375;-73
2022/01/07 13:52:25;;;;;;;;;;;4.70;99.90;;;;;;5054941;28;19920;-72
2022/01/07 13:54:51;;;;;;;;;;;4.90;99.90;;;;;;5054747;28;20375;-72
2022/01/07 13:57:19;;;;;;;;;;;4.60;99.90;;;;;;5054703;28;20015;-72
2022/01/07 13:59:53;;;;;;;;;;;4.60;99.90;;;;;;5053754;28;19927;-74
2022/01/07 14:02:26;;;;;;;;;;;4.60;99.90;;;;;;5054434;28;19927;-73
2022/01/07 14:05:10;;;;;;;;;;;4.60;99.90;;;;;;5054406;28;19973;-72
2022/01/07 14:07:40;;;;;;;;;;;4.50;99.90;;;;;;5070325;28;19920;-72
2022/01/07 14:10:11;;;;;;;;;;;4.50;99.90;;;;;;5086840;28;19921;-72
2022/01/07 14:12:45;;;;;;;;;;;4.50;99.90;;;;;;5054398;28;19927;-72
2022/01/07 14:15:13;;;;;;;;;;;4.50;99.90;;;;;;5054396;28;19924;-73
2022/01/07 14:17:41;;;;;;;;;;;4.40;99.90;;;;;;5054448;28;19920;-73
2022/01/07 14:20:08;;;;;;;;;;;4.40;99.90;;;;;;5054385;28;20007;-72
2022/01/07 14:22:39;;;;;;;;;;;6.00;99.90;;;;;;5054297;28;19927;-73
2022/01/07 14:25:05;;;;;;;;;;;4.40;99.90;;;;;;5069839;28;19921;-74
2022/01/07 14:27:33;;;;;;;;;;;4.40;99.90;;;;;;5054093;28;19921;-73
2022/01/07 14:29:59;;;;;;;;;;;4.40;99.90;;;;;;5054045;28;20291;-73
2022/01/07 14:32:25;;;;;;;;;;;4.30;99.90;;;;;;5054115;28;19925;-72
2022/01/07 14:34:56;;;;;;;;;;;4.30;99.90;;;;;;5054016;28;19979;-72
2022/01/07 14:37:23;;;;;;;;;;;4.30;99.90;;;;;;5053693;28;20288;-72
2022/01/07 14:39:49;;;;;;;;;;;4.20;99.90;;;;;;5053427;28;20019;-72
2022/01/07 14:42:15;;;;;;;;;;;4.20;99.90;;;;;;5053738;28;20382;-75